sensor_id;sensor_type;location;lat;lon;timestamp;pressure;altitude;pressure_sealevel;temperature;humidity
49825;BME280;35714;55.708;37.478;2023-04-04T00:00:07;99267.59;;;9.99;63.89
49825;BME280;35714;55.708;37.478;2023-04-04T00:02:35;99271.59;;;9.96;63.93
49825;BME280;35714;55.708;37.478;2023-04-04T00:05:00;99278.91;;;9.96;63.84
49825;BME280;35714;55.708;37.478;2023-04-04T00:07:26;99280.81;;;9.95;64.03
49825;BME280;35714;55.708;37.478;2023-04-04T00:09:52;99276.44;;;9.94;64.12
49825;BME280;35714;55.708;37.478;2023-04-04T00:12:18;99283.50;;;9.95;64.25
49825;BME280;35714;55.708;37.478;2023-04-04T00:14:43;99279.72;;;9.96;64.12
49825;BME280;35714;55.708;37.478;2023-04-04T00:17:09;99269.72;;;9.97;64.20
49825;BME280;35714;55.708;37.478;2023-04-04T00:19:34;99276.44;;;9.94;64.04
49825;BME280;35714;55.708;37.478;2023-04-04T00:22:01;99276.66;;;9.92;63.99
49825;BME280;35714;55.708;37.478;2023-04-04T00:24:26;99274.19;;;9.91;64.37
49825;BME280;35714;55.708;37.478;2023-04-04T00:26:52;99282.91;;;9.93;64.04
49825;BME280;35714;55.708;37.478;2023-04-04T00:29:18;99282.31;;;9.91;64.16
49825;BME280;35714;55.708;37.478;2023-04-04T00:31:43;99270.91;;;9.89;64.06
49825;BME280;35714;55.708;37.478;2023-04-04T00:34:09;99266.53;;;9.88;64.20
49825;BME280;35714;55.708;37.478;2023-04-04T00:36:35;99259.34;;;9.82;64.20
49825;BME280;35714;55.708;37.478;2023-04-04T00:39:01;99270.19;;;9.82;64.26
49825;BME280;35714;55.708;37.478;2023-04-04T00:41:26;99266.28;;;9.78;64.44
49825;BME280;35714;55.708;37.478;2023-04-04T00:43:53;99263.00;;;9.75;64.39
49825;BME280;35714;55.708;37.478;2023-04-04T00:46:20;99260.97;;;9.71;64.44
49825;BME280;35714;55.708;37.478;2023-04-04T00:48:46;99258.28;;;9.71;64.68
49825;BME280;35714;55.708;37.478;2023-04-04T00:51:12;99262.06;;;9.70;64.57
49825;BME280;35714;55.708;37.478;2023-04-04T00:53:38;99261.78;;;9.71;64.73
49825;BME280;35714;55.708;37.478;2023-04-04T00:56:04;99260.97;;;9.71;64.73
49825;BME280;35714;55.708;37.478;2023-04-04T00:58:31;99258.50;;;9.69;64.66
49825;BME280;35714;55.708;37.478;2023-04-04T01:00:58;99254.97;;;9.69;64.67
49825;BME280;35714;55.708;37.478;2023-04-04T01:03:25;99256.88;;;9.68;64.50
49825;BME280;35714;55.708;37.478;2023-04-04T01:05:53;99256.88;;;9.68;64.38
49825;BME280;35714;55.708;37.478;2023-04-04T01:08:21;99262.28;;;9.68;64.70
49825;BME280;35714;55.708;37.478;2023-04-04T01:10:47;99260.03;;;9.65;64.71
49825;BME280;35714;55.708;37.478;2023-04-04T01:13:15;99250.84;;;9.66;64.65
49825;BME280;35714;55.708;37.478;2023-04-04T01:15:41;99254.41;;;9.67;64.51
49825;BME280;35714;55.708;37.478;2023-04-04T01:18:08;99263.91;;;9.69;64.66
49825;BME280;35714;55.708;37.478;2023-04-04T01:20:40;99260.63;;;9.67;64.69
49825;BME280;35714;55.708;37.478;2023-04-04T01:23:07;99263.91;;;9.69;64.24
49825;BME280;35714;55.708;37.478;2023-04-04T01:25:34;99261.22;;;9.69;64.56
49825;BME280;35714;55.708;37.478;2023-04-04T01:28:03;99267.47;;;9.70;64.54
49825;BME280;35714;55.708;37.478;2023-04-04T01:30:31;99264.50;;;9.71;64.40
49825;BME280;35714;55.708;37.478;2023-04-04T01:33:26;99265.13;;;9.73;64.95
49825;BME280;35714;55.708;37.478;2023-04-04T01:36:04;99264.66;;;9.77;64.50
49825;BME280;35714;55.708;37.478;2023-04-04T01:38:53;99259.81;;;9.79;64.56
49825;BME280;35714;55.708;37.478;2023-04-04T01:41:24;99260.03;;;9.77;64.77
49825;BME280;35714;55.708;37.478;2023-04-04T01:43:55;99260.03;;;9.77;64.43
49825;BME280;35714;55.708;37.478;2023-04-04T01:46:22;99254.88;;;9.75;64.21
49825;BME280;35714;55.708;37.478;2023-04-04T01:48:49;99252.97;;;9.76;64.12
49825;BME280;35714;55.708;37.478;2023-04-04T01:51:20;99252.97;;;9.76;64.14
49825;BME280;35714;55.708;37.478;2023-04-04T01:53:46;99253.19;;;9.74;64.40
49825;BME280;35714;55.708;37.478;2023-04-04T01:56:12;99250.97;;;9.71;64.28
49825;BME280;35714;55.708;37.478;2023-04-04T01:58:38;99250.97;;;9.71;64.16
49825;BME280;35714;55.708;37.478;2023-04-04T02:01:03;99258.50;;;9.69;64.25
49825;BME280;35714;55.708;37.478;2023-04-04T02:03:29;99257.09;;;9.67;64.34
49825;BME280;35714;55.708;37.478;2023-04-04T02:05:55;99257.34;;;9.65;64.16
49825;BME280;35714;55.708;37.478;2023-04-04T02:08:20;99259.44;;;9.63;64.26
49825;BME280;35714;55.708;37.478;2023-04-04T02:10:51;99254.47;;;9.60;64.28
49825;BME280;35714;55.708;37.478;2023-04-04T02:13:17;99259.91;;;9.60;64.40
49825;BME280;35714;55.708;37.478;2023-04-04T02:15:47;99265.31;;;9.60;64.29
49825;BME280;35714;55.708;37.478;2023-04-04T02:18:13;99259.91;;;9.60;64.33
49825;BME280;35714;55.708;37.478;2023-04-04T02:20:39;99261.56;;;9.61;64.36
49825;BME280;35714;55.708;37.478;2023-04-04T02:23:05;99254.47;;;9.60;64.23
49825;BME280;35714;55.708;37.478;2023-04-04T02:25:30;99254.03;;;9.63;64.15
49825;BME280;35714;55.708;37.478;2023-04-04T02:27:56;99256.50;;;9.65;64.14
49825;BME280;35714;55.708;37.478;2023-04-04T02:30:21;99244.84;;;9.64;63.98
49825;BME280;35714;55.708;37.478;2023-04-04T02:32:49;99237.78;;;9.63;64.10
49825;BME280;35714;55.708;37.478;2023-04-04T02:35:17;99254.88;;;9.64;64.12
49825;BME280;35714;55.708;37.478;2023-04-04T02:37:45;99251.53;;;9.62;63.80
49825;BME280;35714;55.708;37.478;2023-04-04T02:40:16;99246.13;;;9.62;63.99
49825;BME280;35714;55.708;37.478;2023-04-04T02:42:43;99246.97;;;9.62;64.01
49825;BME280;35714;55.708;37.478;2023-04-04T02:45:09;99251.53;;;9.62;63.89
49825;BME280;35714;55.708;37.478;2023-04-04T02:47:36;99246.38;;;9.60;63.97
49825;BME280;35714;55.708;37.478;2023-04-04T02:50:03;99246.97;;;9.62;64.06
49825;BME280;35714;55.708;37.478;2023-04-04T02:52:29;99244.84;;;9.64;63.84
49825;BME280;35714;55.708;37.478;2023-04-04T02:54:58;99250.03;;;9.66;63.99
49825;BME280;35714;55.708;37.478;2023-04-04T02:57:30;99246.28;;;9.67;63.85
49825;BME280;35714;55.708;37.478;2023-04-04T02:59:56;99253.09;;;9.69;63.67
49825;BME280;35714;55.708;37.478;2023-04-04T03:02:23;99242.72;;;9.66;63.61
49825;BME280;35714;55.708;37.478;2023-04-04T03:04:49;99249.78;;;9.67;63.48
49825;BME280;35714;55.708;37.478;2023-04-04T03:07:16;99248.13;;;9.66;63.65
49825;BME280;35714;55.708;37.478;2023-04-04T03:09:41;99249.22;;;9.65;63.63
49825;BME280;35714;55.708;37.478;2023-04-04T03:12:10;99251.47;;;9.68;63.70
49825;BME280;35714;55.708;37.478;2023-04-04T03:14:36;99247.66;;;9.69;63.31
49825;BME280;35714;55.708;37.478;2023-04-04T03:17:03;99253.94;;;9.70;63.52
49825;BME280;35714;55.708;37.478;2023-04-04T03:19:29;99258.84;;;9.73;63.56
49825;BME280;35714;55.708;37.478;2023-04-04T03:21:55;99259.69;;;9.73;63.72
49825;BME280;35714;55.708;37.478;2023-04-04T03:24:21;99258.16;;;9.78;63.40
49825;BME280;35714;55.708;37.478;2023-04-04T03:26:47;99253.81;;;9.77;63.53
49825;BME280;35714;55.708;37.478;2023-04-04T03:29:12;99260.41;;;9.81;63.27
49825;BME280;35714;55.708;37.478;2023-04-04T03:31:38;99252.28;;;9.81;63.31
49825;BME280;35714;55.708;37.478;2023-04-04T03:34:04;99259.94;;;9.84;63.24
49825;BME280;35714;55.708;37.478;2023-04-04T03:36:30;99254.97;;;9.81;63.27
49825;BME280;35714;55.708;37.478;2023-04-04T03:38:56;99262.16;;;9.87;63.30
49825;BME280;35714;55.708;37.478;2023-04-04T03:41:21;99254.66;;;9.89;63.16
49825;BME280;35714;55.708;37.478;2023-04-04T03:43:47;99255.25;;;9.91;63.13
49825;BME280;35714;55.708;37.478;2023-04-04T03:46:13;99262.31;;;9.92;62.97
49825;BME280;35714;55.708;37.478;2023-04-04T03:48:39;99261.00;;;9.94;62.91
49825;BME280;35714;55.708;37.478;2023-04-04T03:51:07;99258.53;;;9.93;62.93
49825;BME280;35714;55.708;37.478;2023-04-04T03:53:35;99257.25;;;9.96;62.99
49825;BME280;35714;55.708;37.478;2023-04-04T03:56:01;99259.25;;;10.00;62.80
49825;BME280;35714;55.708;37.478;2023-04-04T03:58:27;99261.47;;;10.03;62.80
49825;BME280;35714;55.708;37.478;2023-04-04T04:00:53;99253.38;;;10.03;62.65
49825;BME280;35714;55.708;37.478;2023-04-04T04:03:19;99258.31;;;10.06;62.69
49825;BME280;35714;55.708;37.478;2023-04-04T04:05:46;99256.19;;;10.08;62.78
49825;BME280;35714;55.708;37.478;2023-04-04T04:08:12;99249.72;;;10.09;62.63
49825;BME280;35714;55.708;37.478;2023-04-04T04:10:38;99259.13;;;10.19;62.46
49825;BME280;35714;55.708;37.478;2023-04-04T04:13:04;99260.28;;;10.23;62.28
49825;BME280;35714;55.708;37.478;2023-04-04T04:15:29;99258.28;;;10.30;62.25
49825;BME280;35714;55.708;37.478;2023-04-04T04:17:57;99259.47;;;10.34;61.97
49825;BME280;35714;55.708;37.478;2023-04-04T04:20:25;99253.59;;;10.37;62.42
49825;BME280;35714;55.708;37.478;2023-04-04T04:22:52;99255.81;;;10.40;61.69
49825;BME280;35714;55.708;37.478;2023-04-04T04:25:17;99261.38;;;10.45;61.66
49825;BME280;35714;55.708;37.478;2023-04-04T04:27:54;99265.00;;;10.51;61.68
49825;BME280;35714;55.708;37.478;2023-04-04T04:30:21;99279.50;;;10.57;61.37
49825;BME280;35714;55.708;37.478;2023-04-04T04:32:49;99266.03;;;10.62;61.42
49825;BME280;35714;55.708;37.478;2023-04-04T04:35:15;99264.50;;;10.66;61.26
49825;BME280;35714;55.708;37.478;2023-04-04T04:37:41;99262.94;;;10.70;61.22
49825;BME280;35714;55.708;37.478;2023-04-04T04:40:08;99262.94;;;10.70;60.94
49825;BME280;35714;55.708;37.478;2023-04-04T04:42:45;99257.53;;;10.70;60.88
49825;BME280;35714;55.708;37.478;2023-04-04T04:45:14;99258.63;;;10.69;60.78
49825;BME280;35714;55.708;37.478;2023-04-04T04:47:44;99259.19;;;10.71;60.78
49825;BME280;35714;55.708;37.478;2023-04-04T04:50:14;99265.31;;;10.78;60.80
49825;BME280;35714;55.708;37.478;2023-04-04T04:52:44;99268.13;;;10.83;60.61
49825;BME280;35714;55.708;37.478;2023-04-04T04:55:12;99270.69;;;10.90;60.64
49825;BME280;35714;55.708;37.478;2023-04-04T04:57:42;99270.28;;;10.98;60.43
49825;BME280;35714;55.708;37.478;2023-04-04T05:00:15;99267.78;;;11.09;60.16
49825;BME280;35714;55.708;37.478;2023-04-04T05:02:43;99268.22;;;11.17;59.94
49825;BME280;35714;55.708;37.478;2023-04-04T05:05:11;99264.03;;;11.27;60.32
49825;BME280;35714;55.708;37.478;2023-04-04T05:07:38;99254.94;;;11.33;59.55
49825;BME280;35714;55.708;37.478;2023-04-04T05:10:04;99252.81;;;11.35;59.36
49825;BME280;35714;55.708;37.478;2023-04-04T05:12:30;99244.56;;;11.30;59.15
49825;BME280;35714;55.708;37.478;2023-04-04T05:14:56;99247.38;;;11.35;58.96
49825;BME280;35714;55.708;37.478;2023-04-04T05:17:21;99242.78;;;11.35;58.96
49825;BME280;35714;55.708;37.478;2023-04-04T05:19:48;99241.97;;;11.35;58.85
49825;BME280;35714;55.708;37.478;2023-04-04T05:22:18;99243.34;;;11.37;58.69
49825;BME280;35714;55.708;37.478;2023-04-04T05:24:48;99245.88;;;11.44;58.57
49825;BME280;35714;55.708;37.478;2023-04-04T05:27:18;99246.91;;;11.55;58.44
49825;BME280;35714;55.708;37.478;2023-04-04T05:29:50;99252.03;;;11.68;58.25
49825;BME280;35714;55.708;37.478;2023-04-04T05:32:16;99248.72;;;11.83;58.05
49825;BME280;35714;55.708;37.478;2023-04-04T05:34:49;99245.59;;;11.91;57.68
49825;BME280;35714;55.708;37.478;2023-04-04T05:37:18;99247.56;;;12.13;57.31
49825;BME280;35714;55.708;37.478;2023-04-04T05:39:47;99254.28;;;12.27;56.91
49825;BME280;35714;55.708;37.478;2023-04-04T05:42:13;99251.78;;;12.43;56.28
49825;BME280;35714;55.708;37.478;2023-04-04T05:44:45;99242.19;;;12.57;56.15
49825;BME280;35714;55.708;37.478;2023-04-04T05:47:10;99252.28;;;12.84;55.44
49825;BME280;35714;55.708;37.478;2023-04-04T05:49:40;99256.91;;;13.06;54.95
49825;BME280;35714;55.708;37.478;2023-04-04T05:52:05;99257.69;;;13.28;54.26
49825;BME280;35714;55.708;37.478;2023-04-04T05:54:32;99245.94;;;13.50;53.88
49825;BME280;35714;55.708;37.478;2023-04-04T05:57:00;99247.25;;;13.75;53.01
49825;BME280;35714;55.708;37.478;2023-04-04T05:59:42;99241.66;;;13.92;52.34
49825;BME280;35714;55.708;37.478;2023-04-04T06:02:10;99246.91;;;14.03;51.81
49825;BME280;35714;55.708;37.478;2023-04-04T06:04:45;99215.47;;;13.90;51.48
49825;BME280;35714;55.708;37.478;2023-04-04T06:07:26;99244.00;;;14.15;51.20
49825;BME280;35714;55.708;37.478;2023-04-04T06:09:51;99239.34;;;14.16;51.16
49825;BME280;35714;55.708;37.478;2023-04-04T06:12:18;99236.59;;;14.11;50.91
49825;BME280;35714;55.708;37.478;2023-04-04T06:14:44;99243.09;;;14.04;50.94
49825;BME280;35714;55.708;37.478;2023-04-04T06:17:10;99243.38;;;14.03;50.52
49825;BME280;35714;55.708;37.478;2023-04-04T06:19:36;99248.03;;;14.07;50.53
49825;BME280;35714;55.708;37.478;2023-04-04T06:22:02;99248.50;;;14.42;50.89
49825;BME280;35714;55.708;37.478;2023-04-04T06:24:30;99241.69;;;15.03;50.36
49825;BME280;35714;55.708;37.478;2023-04-04T06:26:56;99246.72;;;15.67;49.08
49825;BME280;35714;55.708;37.478;2023-04-04T06:29:24;99256.25;;;16.21;47.11
49825;BME280;35714;55.708;37.478;2023-04-04T06:31:52;99252.06;;;16.60;45.89
49825;BME280;35714;55.708;37.478;2023-04-04T06:34:22;99250.03;;;16.97;45.14
49825;BME280;35714;55.708;37.478;2023-04-04T06:36:53;99245.50;;;17.21;43.75
49825;BME280;35714;55.708;37.478;2023-04-04T06:39:22;99250.88;;;17.42;43.46
49825;BME280;35714;55.708;37.478;2023-04-04T06:41:49;99246.97;;;17.82;43.39
49825;BME280;35714;55.708;37.478;2023-04-04T06:44:21;99248.81;;;18.27;42.64
49825;BME280;35714;55.708;37.478;2023-04-04T06:46:47;99255.25;;;18.41;41.60
49825;BME280;35714;55.708;37.478;2023-04-04T06:49:12;99254.16;;;18.37;40.88
49825;BME280;35714;55.708;37.478;2023-04-04T06:51:40;99253.25;;;18.47;40.66
49825;BME280;35714;55.708;37.478;2023-04-04T06:54:06;99248.44;;;18.57;39.81
49825;BME280;35714;55.708;37.478;2023-04-04T06:56:32;99254.75;;;18.58;39.72
49825;BME280;35714;55.708;37.478;2023-04-04T06:58:58;99253.00;;;18.43;39.67
49825;BME280;35714;55.708;37.478;2023-04-04T07:01:23;99258.81;;;18.12;39.57
49825;BME280;35714;55.708;37.478;2023-04-04T07:03:52;99260.69;;;17.82;39.71
49825;BME280;35714;55.708;37.478;2023-04-04T07:06:21;99258.97;;;17.57;40.49
49825;BME280;35714;55.708;37.478;2023-04-04T07:08:49;99261.81;;;17.42;40.34
49825;BME280;35714;55.708;37.478;2023-04-04T07:11:14;99260.78;;;17.27;40.64
49825;BME280;35714;55.708;37.478;2023-04-04T07:13:40;99265.25;;;17.18;40.58
49825;BME280;35714;55.708;37.478;2023-04-04T07:16:06;99260.34;;;17.10;40.87
49825;BME280;35714;55.708;37.478;2023-04-04T07:18:31;99267.72;;;17.14;40.69
49825;BME280;35714;55.708;37.478;2023-04-04T07:21:04;99272.06;;;17.21;40.31
49825;BME280;35714;55.708;37.478;2023-04-04T07:23:30;99259.41;;;17.30;40.21
49825;BME280;35714;55.708;37.478;2023-04-04T07:25:56;99270.06;;;17.37;40.25
49825;BME280;35714;55.708;37.478;2023-04-04T07:28:21;99267.38;;;17.31;40.11
49825;BME280;35714;55.708;37.478;2023-04-04T07:30:47;99271.84;;;17.17;40.00
49825;BME280;35714;55.708;37.478;2023-04-04T07:33:13;99267.47;;;17.11;40.33
49825;BME280;35714;55.708;37.478;2023-04-04T07:35:38;99261.47;;;17.09;40.77
49825;BME280;35714;55.708;37.478;2023-04-04T07:38:04;99271.03;;;17.11;40.79
49825;BME280;35714;55.708;37.478;2023-04-04T07:40:30;99262.56;;;17.08;40.72
49825;BME280;35714;55.708;37.478;2023-04-04T07:42:56;99265.31;;;17.08;40.39
49825;BME280;35714;55.708;37.478;2023-04-04T07:45:21;99265.03;;;17.09;40.47
49825;BME280;35714;55.708;37.478;2023-04-04T07:47:47;99264.22;;;17.09;40.74
49825;BME280;35714;55.708;37.478;2023-04-04T07:50:14;99266.38;;;17.12;40.29
49825;BME280;35714;55.708;37.478;2023-04-04T07:52:40;99265.84;;;17.10;40.30
49825;BME280;35714;55.708;37.478;2023-04-04T07:55:08;99270.75;;;17.18;40.39
49825;BME280;35714;55.708;37.478;2023-04-04T07:57:37;99258.91;;;17.28;40.13
49825;BME280;35714;55.708;37.478;2023-04-04T08:00:07;99264.28;;;17.38;40.00
49825;BME280;35714;55.708;37.478;2023-04-04T08:02:44;99263.97;;;17.50;39.61
49825;BME280;35714;55.708;37.478;2023-04-04T08:05:10;99262.44;;;17.68;39.26
49825;BME280;35714;55.708;37.478;2023-04-04T08:07:35;99260.78;;;18.07;39.32
49825;BME280;35714;55.708;37.478;2023-04-04T08:10:01;99261.38;;;18.57;38.50
49825;BME280;35714;55.708;37.478;2023-04-04T08:12:29;99266.31;;;19.03;37.28
49825;BME280;35714;55.708;37.478;2023-04-04T08:14:54;99262.47;;;19.42;36.45
49825;BME280;35714;55.708;37.478;2023-04-04T08:17:20;99264.09;;;19.81;36.13
49825;BME280;35714;55.708;37.478;2023-04-04T08:19:46;99267.13;;;20.60;35.44
49825;BME280;35714;55.708;37.478;2023-04-04T08:22:12;99261.56;;;21.66;34.29
49825;BME280;35714;55.708;37.478;2023-04-04T08:24:37;99258.53;;;22.52;32.23
49825;BME280;35714;55.708;37.478;2023-04-04T08:27:03;99257.63;;;23.50;30.94
49825;BME280;35714;55.708;37.478;2023-04-04T08:29:30;99262.88;;;24.42;30.22
49825;BME280;35714;55.708;37.478;2023-04-04T08:31:57;99263.25;;;24.79;29.31
49825;BME280;35714;55.708;37.478;2023-04-04T08:34:22;99264.59;;;24.73;28.86
49825;BME280;35714;55.708;37.478;2023-04-04T08:36:48;99265.28;;;24.53;28.34
49825;BME280;35714;55.708;37.478;2023-04-04T08:39:14;99266.03;;;24.32;28.25
49825;BME280;35714;55.708;37.478;2023-04-04T08:41:42;99263.06;;;24.37;27.84
49825;BME280;35714;55.708;37.478;2023-04-04T08:44:11;99267.16;;;24.31;27.13
49825;BME280;35714;55.708;37.478;2023-04-04T08:46:43;99267.09;;;23.84;27.61
49825;BME280;35714;55.708;37.478;2023-04-04T08:49:11;99262.84;;;23.42;28.03
49825;BME280;35714;55.708;37.478;2023-04-04T08:51:38;99260.38;;;23.32;28.45
49825;BME280;35714;55.708;37.478;2023-04-04T08:54:05;99267.88;;;23.40;28.41
49825;BME280;35714;55.708;37.478;2023-04-04T08:56:33;99272.44;;;23.45;28.09
49825;BME280;35714;55.708;37.478;2023-04-04T08:58:59;99271.63;;;23.27;28.11
49825;BME280;35714;55.708;37.478;2023-04-04T09:01:27;99270.06;;;22.95;28.21
49825;BME280;35714;55.708;37.478;2023-04-04T09:03:56;99258.09;;;22.59;28.70
49825;BME280;35714;55.708;37.478;2023-04-04T09:06:22;99290.00;;;22.34;28.62
49825;BME280;35714;55.708;37.478;2023-04-04T09:08:48;99273.78;;;21.96;29.02
49825;BME280;35714;55.708;37.478;2023-04-04T09:11:16;99286.03;;;21.58;29.40
49825;BME280;35714;55.708;37.478;2023-04-04T09:13:44;99265.38;;;21.05;30.22
49825;BME280;35714;55.708;37.478;2023-04-04T09:16:09;99285.31;;;20.88;30.67
49825;BME280;35714;55.708;37.478;2023-04-04T09:18:35;99282.47;;;20.66;30.63
49825;BME280;35714;55.708;37.478;2023-04-04T09:21:08;99293.25;;;20.48;31.13
49825;BME280;35714;55.708;37.478;2023-04-04T09:23:34;99283.31;;;20.33;31.55
49825;BME280;35714;55.708;37.478;2023-04-04T09:26:00;99279.91;;;20.23;31.53
49825;BME280;35714;55.708;37.478;2023-04-04T09:28:26;99286.94;;;20.15;31.84
49825;BME280;35714;55.708;37.478;2023-04-04T09:30:52;99282.53;;;20.00;31.88
49825;BME280;35714;55.708;37.478;2023-04-04T09:33:20;99280.38;;;19.97;31.76
49825;BME280;35714;55.708;37.478;2023-04-04T09:36:06;99283.31;;;20.00;31.51
49825;BME280;35714;55.708;37.478;2023-04-04T09:38:36;99288.56;;;19.83;31.92
49825;BME280;35714;55.708;37.478;2023-04-04T09:41:05;99287.81;;;19.77;31.98
49825;BME280;35714;55.708;37.478;2023-04-04T09:43:34;99287.16;;;19.86;32.13
49825;BME280;35714;55.708;37.478;2023-04-04T09:46:00;99284.75;;;19.98;31.95
49825;BME280;35714;55.708;37.478;2023-04-04T09:48:29;99285.53;;;20.17;31.67
49825;BME280;35714;55.708;37.478;2023-04-04T09:50:57;99287.19;;;20.46;31.23
49825;BME280;35714;55.708;37.478;2023-04-04T09:53:26;99282.50;;;20.61;30.03
49825;BME280;35714;55.708;37.478;2023-04-04T09:55:54;99290.28;;;20.59;29.49
49825;BME280;35714;55.708;37.478;2023-04-04T10:00:51;99293.84;;;20.59;30.67
49825;BME280;35714;55.708;37.478;2023-04-04T10:03:21;99299.09;;;20.88;30.36
49825;BME280;35714;55.708;37.478;2023-04-04T10:06:02;99303.69;;;21.07;28.09
49825;BME280;35714;55.708;37.478;2023-04-04T10:08:28;99293.16;;;20.81;28.02
49825;BME280;35714;55.708;37.478;2023-04-04T10:11:28;99294.25;;;20.52;28.40
49825;BME280;35714;55.708;37.478;2023-04-04T10:13:55;99298.13;;;20.05;28.59
49825;BME280;35714;55.708;37.478;2023-04-04T10:16:23;99282.38;;;19.72;29.45
49825;BME280;35714;55.708;37.478;2023-04-04T10:18:48;99299.19;;;19.52;30.02
49825;BME280;35714;55.708;37.478;2023-04-04T10:21:16;99288.72;;;19.35;30.48
49825;BME280;35714;55.708;37.478;2023-04-04T10:23:44;99297.91;;;19.25;30.58
49825;BME280;35714;55.708;37.478;2023-04-04T10:26:11;99293.56;;;19.00;30.57
49825;BME280;35714;55.708;37.478;2023-04-04T10:28:37;99292.97;;;18.54;30.98
49825;BME280;35714;55.708;37.478;2023-04-04T10:34:27;99308.38;;;17.92;32.43
49825;BME280;35714;55.708;37.478;2023-04-04T10:37:08;99300.50;;;17.80;32.23
49825;BME280;35714;55.708;37.478;2023-04-04T10:39:40;99302.47;;;17.69;32.60
49825;BME280;35714;55.708;37.478;2023-04-04T10:42:09;99308.25;;;17.67;32.87
49825;BME280;35714;55.708;37.478;2023-04-04T10:44:38;99305.69;;;17.76;33.11
49825;BME280;35714;55.708;37.478;2023-04-04T10:47:14;99306.19;;;17.89;33.07
49825;BME280;35714;55.708;37.478;2023-04-04T10:49:43;99312.56;;;17.79;32.77
49825;BME280;35714;55.708;37.478;2023-04-04T10:52:10;99307.09;;;17.74;33.05
49825;BME280;35714;55.708;37.478;2023-04-04T10:54:39;99310.88;;;17.83;32.75
49825;BME280;35714;55.708;37.478;2023-04-04T10:57:05;99312.41;;;17.99;32.53
49825;BME280;35714;55.708;37.478;2023-04-04T10:59:31;99297.94;;;18.23;32.66
49825;BME280;35714;55.708;37.478;2023-04-04T11:01:58;99307.25;;;18.56;32.13
49825;BME280;35714;55.708;37.478;2023-04-04T11:04:30;99312.16;;;18.84;32.17
49825;BME280;35714;55.708;37.478;2023-04-04T11:07:15;99303.22;;;18.97;31.99
49825;BME280;35714;55.708;37.478;2023-04-04T11:09:49;99314.34;;;18.87;31.22
49825;BME280;35714;55.708;37.478;2023-04-04T11:12:15;99312.69;;;18.62;31.18
49825;BME280;35714;55.708;37.478;2023-04-04T11:15:05;99309.56;;;18.15;31.95
49825;BME280;35714;55.708;37.478;2023-04-04T11:17:57;99302.69;;;17.78;32.92
49825;BME280;35714;55.708;37.478;2023-04-04T11:20:43;99313.50;;;17.64;33.06
49825;BME280;35714;55.708;37.478;2023-04-04T11:23:16;99308.38;;;17.47;33.06
49825;BME280;35714;55.708;37.478;2023-04-04T11:25:56;99302.41;;;17.35;33.23
49825;BME280;35714;55.708;37.478;2023-04-04T11:28:24;99304.91;;;17.26;33.41
49825;BME280;35714;55.708;37.478;2023-04-04T11:34:07;99307.31;;;17.43;33.30
49825;BME280;35714;55.708;37.478;2023-04-04T11:39:04;99302.41;;;17.35;33.59
49825;BME280;35714;55.708;37.478;2023-04-04T11:41:52;99307.88;;;17.40;33.90
49825;BME280;35714;55.708;37.478;2023-04-04T11:44:23;99304.34;;;17.34;33.89
49825;BME280;35714;55.708;37.478;2023-04-04T11:49:33;99309.81;;;17.39;33.73
49825;BME280;35714;55.708;37.478;2023-04-04T11:52:04;99317.13;;;17.49;33.81
49825;BME280;35714;55.708;37.478;2023-04-04T11:54:30;99307.25;;;17.53;33.80
49825;BME280;35714;55.708;37.478;2023-04-04T11:56:57;99308.34;;;17.52;33.98
49825;BME280;35714;55.708;37.478;2023-04-04T11:59:22;99310.66;;;17.35;33.68
49825;BME280;35714;55.708;37.478;2023-04-04T12:01:49;99320.47;;;17.41;34.08
49825;BME280;35714;55.708;37.478;2023-04-04T12:04:19;99318.22;;;17.48;34.24
49825;BME280;35714;55.708;37.478;2023-04-04T12:06:49;99313.50;;;17.64;33.95
49825;BME280;35714;55.708;37.478;2023-04-04T12:09:18;99309.00;;;17.78;33.64
49825;BME280;35714;55.708;37.478;2023-04-04T12:11:48;99308.13;;;17.88;33.69
49825;BME280;35714;55.708;37.478;2023-04-04T12:14:18;99315.50;;;17.93;33.24
49825;BME280;35714;55.708;37.478;2023-04-04T12:16:50;99316.19;;;18.09;33.14
49825;BME280;35714;55.708;37.478;2023-04-04T12:19:17;99310.41;;;18.10;33.05
49825;BME280;35714;55.708;37.478;2023-04-04T12:21:44;99317.22;;;18.18;32.80
49825;BME280;35714;55.708;37.478;2023-04-04T12:24:12;99309.75;;;18.24;32.57
49825;BME280;35714;55.708;37.478;2023-04-04T12:26:41;99316.00;;;18.29;32.78
49825;BME280;35714;55.708;37.478;2023-04-04T12:29:08;99308.56;;;18.30;32.43
49825;BME280;35714;55.708;37.478;2023-04-04T12:31:35;99318.09;;;18.43;32.61
49825;BME280;35714;55.708;37.478;2023-04-04T12:34:01;99318.53;;;18.50;32.16
49825;BME280;35714;55.708;37.478;2023-04-04T12:36:30;99322.66;;;18.52;32.01
49825;BME280;35714;55.708;37.478;2023-04-04T12:39:00;99327.84;;;18.54;31.91
49825;BME280;35714;55.708;37.478;2023-04-04T12:41:27;99329.00;;;18.48;32.22
49825;BME280;35714;55.708;37.478;2023-04-04T12:44:03;99333.72;;;18.42;32.80
49825;BME280;35714;55.708;37.478;2023-04-04T12:46:39;99334.94;;;18.31;32.41
49825;BME280;35714;55.708;37.478;2023-04-04T12:49:06;99330.00;;;17.98;33.19
49825;BME280;35714;55.708;37.478;2023-04-04T12:51:35;99318.66;;;17.71;33.49
49825;BME280;35714;55.708;37.478;2023-04-04T12:54:05;99332.94;;;17.67;33.81
49825;BME280;35714;55.708;37.478;2023-04-04T12:56:31;99328.63;;;17.56;34.00
49825;BME280;35714;55.708;37.478;2023-04-04T12:59:01;99333.59;;;17.49;34.19
49825;BME280;35714;55.708;37.478;2023-04-04T13:01:30;99334.66;;;17.53;34.04
49825;BME280;35714;55.708;37.478;2023-04-04T13:04:00;99336.41;;;17.39;34.22
49825;BME280;35714;55.708;37.478;2023-04-04T13:06:30;99339.75;;;17.25;34.75
49825;BME280;35714;55.708;37.478;2023-04-04T13:08:56;99345.78;;;17.22;34.56
49825;BME280;35714;55.708;37.478;2023-04-04T13:11:22;99338.66;;;17.26;34.74